sensor_id;sensor_type;location;lat;lon;timestamp;temperature;humidity
76878;DHT22;65843;50.692;12.844;2023-03-01T00:00:26;19.10;59.00
76878;DHT22;65843;50.692;12.844;2023-03-01T00:01:28;19.10;59.30
76878;DHT22;65843;50.692;12.844;2023-03-01T00:02:29;19.10;59.40
76878;DHT22;65843;50.692;12.844;2023-03-01T00:03:30;19.10;59.30
76878;DHT22;65843;50.692;12.844;2023-03-01T00:04:31;19.10;59.10
76878;DHT22;65843;50.692;12.844;2023-03-01T00:05:32;19.10;59.20
76878;DHT22;65843;50.692;12.844;2023-03-01T00:06:33;19.10;59.60
76878;DHT22;65843;50.692;12.844;2023-03-01T00:07:34;19.10;59.20
76878;DHT22;65843;50.692;12.844;2023-03-01T00:08:35;19.10;59.40
76878;DHT22;65843;50.692;12.844;2023-03-01T00:09:36;19.10;59.40
76878;DHT22;65843;50.692;12.844;2023-03-01T00:10:37;19.20;58.90
76878;DHT22;65843;50.692;12.844;2023-03-01T00:11:39;19.20;59.30
76878;DHT22;65843;50.692;12.844;2023-03-01T00:12:39;19.20;59.40
76878;DHT22;65843;50.692;12.844;2023-03-01T00:13:41;19.20;59.20
76878;DHT22;65843;50.692;12.844;2023-03-01T00:14:41;19.20;59.40
76878;DHT22;65843;50.692;12.844;2023-03-01T00:15:42;19.20;59.10
76878;DHT22;65843;50.692;12.844;2023-03-01T00:16:44;19.20;59.10
76878;DHT22;65843;50.692;12.844;2023-03-01T00:17:45;19.20;59.20
76878;DHT22;65843;50.692;12.844;2023-03-01T00:18:46;19.20;59.10
76878;DHT22;65843;50.692;12.844;2023-03-01T00:19:47;19.20;58.80
76878;DHT22;65843;50.692;12.844;2023-03-01T00:20:51;19.20;59.00
76878;DHT22;65843;50.692;12.844;2023-03-01T00:21:52;19.20;58.80
76878;DHT22;65843;50.692;12.844;2023-03-01T00:22:53;19.20;58.90
76878;DHT22;65843;50.692;12.844;2023-03-01T00:23:54;19.20;59.00
76878;DHT22;65843;50.692;12.844;2023-03-01T00:24:55;19.20;58.90
76878;DHT22;65843;50.692;12.844;2023-03-01T00:25:56;19.20;58.70
76878;DHT22;65843;50.692;12.844;2023-03-01T00:26:57;19.30;58.90
76878;DHT22;65843;50.692;12.844;2023-03-01T00:27:58;19.20;58.90
76878;DHT22;65843;50.692;12.844;2023-03-01T00:28:59;19.20;59.00
76878;DHT22;65843;50.692;12.844;2023-03-01T00:30:00;19.20;59.30
76878;DHT22;65843;50.692;12.844;2023-03-01T00:31:04;19.20;59.40
76878;DHT22;65843;50.692;12.844;2023-03-01T00:32:05;19.20;59.40
76878;DHT22;65843;50.692;12.844;2023-03-01T00:33:06;19.20;59.40
76878;DHT22;65843;50.692;12.844;2023-03-01T00:34:07;19.20;59.50
76878;DHT22;65843;50.692;12.844;2023-03-01T00:35:08;19.20;59.50
76878;DHT22;65843;50.692;12.844;2023-03-01T00:36:09;19.20;59.50
76878;DHT22;65843;50.692;12.844;2023-03-01T00:37:10;19.20;59.60
76878;DHT22;65843;50.692;12.844;2023-03-01T00:38:11;19.20;59.50
76878;DHT22;65843;50.692;12.844;2023-03-01T00:39:15;19.20;59.60
76878;DHT22;65843;50.692;12.844;2023-03-01T00:40:16;19.20;59.80
76878;DHT22;65843;50.692;12.844;2023-03-01T00:41:18;19.20;60.00
76878;DHT22;65843;50.692;12.844;2023-03-01T00:42:19;19.20;60.00
76878;DHT22;65843;50.692;12.844;2023-03-01T00:43:20;19.30;59.90
76878;DHT22;65843;50.692;12.844;2023-03-01T00:44:21;19.30;59.80
76878;DHT22;65843;50.692;12.844;2023-03-01T00:45:22;19.30;59.70
76878;DHT22;65843;50.692;12.844;2023-03-01T00:46:24;19.20;59.80
76878;DHT22;65843;50.692;12.844;2023-03-01T00:47:25;19.20;59.90
76878;DHT22;65843;50.692;12.844;2023-03-01T00:48:26;19.20;59.70
76878;DHT22;65843;50.692;12.844;2023-03-01T00:49:26;19.30;59.40
76878;DHT22;65843;50.692;12.844;2023-03-01T00:50:28;19.20;59.70
76878;DHT22;65843;50.692;12.844;2023-03-01T00:51:29;19.30;59.80
76878;DHT22;65843;50.692;12.844;2023-03-01T00:52:30;19.20;59.70
76878;DHT22;65843;50.692;12.844;2023-03-01T00:53:31;19.20;59.60
76878;DHT22;65843;50.692;12.844;2023-03-01T00:54:32;19.20;59.50
76878;DHT22;65843;50.692;12.844;2023-03-01T00:55:33;19.20;59.50
76878;DHT22;65843;50.692;12.844;2023-03-01T00:56:34;19.20;59.40
76878;DHT22;65843;50.692;12.844;2023-03-01T00:57:35;19.20;59.10
76878;DHT22;65843;50.692;12.844;2023-03-01T00:58:36;19.20;59.70
76878;DHT22;65843;50.692;12.844;2023-03-01T00:59:37;19.20;59.60
76878;DHT22;65843;50.692;12.844;2023-03-01T01:00:38;19.20;59.70
76878;DHT22;65843;50.692;12.844;2023-03-01T01:01:39;19.20;59.60
76878;DHT22;65843;50.692;12.844;2023-03-01T01:02:40;19.20;59.60
76878;DHT22;65843;50.692;12.844;2023-03-01T01:03:41;19.20;59.80
76878;DHT22;65843;50.692;12.844;2023-03-01T01:04:42;19.20;60.00
76878;DHT22;65843;50.692;12.844;2023-03-01T01:05:42;19.30;59.80
76878;DHT22;65843;50.692;12.844;2023-03-01T01:06:46;19.30;59.70
76878;DHT22;65843;50.692;12.844;2023-03-01T01:07:47;19.30;60.00
76878;DHT22;65843;50.692;12.844;2023-03-01T01:08:49;19.30;59.50
76878;DHT22;65843;50.692;12.844;2023-03-01T01:09:50;19.40;59.60
76878;DHT22;65843;50.692;12.844;2023-03-01T01:10:50;19.40;59.60
76878;DHT22;65843;50.692;12.844;2023-03-01T01:11:51;19.40;59.70
76878;DHT22;65843;50.692;12.844;2023-03-01T01:12:52;19.40;59.90
76878;DHT22;65843;50.692;12.844;2023-03-01T01:13:53;19.40;59.90
76878;DHT22;65843;50.692;12.844;2023-03-01T01:14:54;19.30;59.80
76878;DHT22;65843;50.692;12.844;2023-03-01T01:15:59;19.40;59.60
76878;DHT22;65843;50.692;12.844;2023-03-01T01:17:01;19.30;59.80
76878;DHT22;65843;50.692;12.844;2023-03-01T01:18:02;19.30;59.90
76878;DHT22;65843;50.692;12.844;2023-03-01T01:19:02;19.30;60.00
76878;DHT22;65843;50.692;12.844;2023-03-01T01:20:03;19.30;60.00
76878;DHT22;65843;50.692;12.844;2023-03-01T01:21:05;19.30;59.80
76878;DHT22;65843;50.692;12.844;2023-03-01T01:22:06;19.30;60.00
76878;DHT22;65843;50.692;12.844;2023-03-01T01:23:07;19.30;59.90
76878;DHT22;65843;50.692;12.844;2023-03-01T01:24:08;19.30;59.90
76878;DHT22;65843;50.692;12.844;2023-03-01T01:25:09;19.30;59.80
76878;DHT22;65843;50.692;12.844;2023-03-01T01:26:15;19.30;59.80
76878;DHT22;65843;50.692;12.844;2023-03-01T01:27:16;19.30;59.90
76878;DHT22;65843;50.692;12.844;2023-03-01T01:28:17;19.30;59.80
76878;DHT22;65843;50.692;12.844;2023-03-01T01:29:18;19.30;59.70
76878;DHT22;65843;50.692;12.844;2023-03-01T01:30:19;19.30;59.60
76878;DHT22;65843;50.692;12.844;2023-03-01T01:31:21;19.30;59.70
76878;DHT22;65843;50.692;12.844;2023-03-01T01:32:24;19.30;59.70
76878;DHT22;65843;50.692;12.844;2023-03-01T01:33:25;19.30;59.60
76878;DHT22;65843;50.692;12.844;2023-03-01T01:34:25;19.30;59.80
76878;DHT22;65843;50.692;12.844;2023-03-01T01:35:27;19.30;59.80
76878;DHT22;65843;50.692;12.844;2023-03-01T01:36:28;19.30;59.70
76878;DHT22;65843;50.692;12.844;2023-03-01T01:37:29;19.30;59.70
76878;DHT22;65843;50.692;12.844;2023-03-01T01:38:34;19.30;59.70
76878;DHT22;65843;50.692;12.844;2023-03-01T01:39:35;19.20;59.90
76878;DHT22;65843;50.692;12.844;2023-03-01T01:40:42;19.20;59.70
76878;DHT22;65843;50.692;12.844;2023-03-01T01:41:43;19.20;59.30
76878;DHT22;65843;50.692;12.844;2023-03-01T01:42:44;19.20;59.80
76878;DHT22;65843;50.692;12.844;2023-03-01T01:43:46;19.20;59.90
76878;DHT22;65843;50.692;12.844;2023-03-01T01:44:47;19.30;59.80
76878;DHT22;65843;50.692;12.844;2023-03-01T01:45:48;19.30;59.80
76878;DHT22;65843;50.692;12.844;2023-03-01T01:47:54;19.30;59.70
76878;DHT22;65843;50.692;12.844;2023-03-01T01:48:57;19.30;59.70
76878;DHT22;65843;50.692;12.844;2023-03-01T01:49:59;19.30;59.80
76878;DHT22;65843;50.692;12.844;2023-03-01T01:51:00;19.30;59.80
76878;DHT22;65843;50.692;12.844;2023-03-01T01:52:20;19.30;59.80
76878;DHT22;65843;50.692;12.844;2023-03-01T01:53:23;19.30;59.80
76878;DHT22;65843;50.692;12.844;2023-03-01T01:54:30;19.30;59.80
76878;DHT22;65843;50.692;12.844;2023-03-01T01:55:32;19.30;59.80
76878;DHT22;65843;50.692;12.844;2023-03-01T01:56:32;19.30;59.80
76878;DHT22;65843;50.692;12.844;2023-03-01T01:57:43;19.30;59.80
76878;DHT22;65843;50.692;12.844;2023-03-01T01:58:45;19.30;59.80
76878;DHT22;65843;50.692;12.844;2023-03-01T01:59:49;19.30;59.70
76878;DHT22;65843;50.692;12.844;2023-03-01T02:00:51;19.30;59.70
76878;DHT22;65843;50.692;12.844;2023-03-01T02:01:53;19.30;59.80
76878;DHT22;65843;50.692;12.844;2023-03-01T02:02:59;19.30;59.80
76878;DHT22;65843;50.692;12.844;2023-03-01T02:04:00;19.40;60.00
76878;DHT22;65843;50.692;12.844;2023-03-01T02:05:03;19.40;59.70
76878;DHT22;65843;50.692;12.844;2023-03-01T02:06:12;19.40;59.70
76878;DHT22;65843;50.692;12.844;2023-03-01T02:07:15;19.40;59.80
76878;DHT22;65843;50.692;12.844;2023-03-01T02:08:17;19.40;60.10
76878;DHT22;65843;50.692;12.844;2023-03-01T02:09:19;19.40;60.00
76878;DHT22;65843;50.692;12.844;2023-03-01T02:10:21;19.40;60.00
76878;DHT22;65843;50.692;12.844;2023-03-01T02:11:23;19.40;60.00
76878;DHT22;65843;50.692;12.844;2023-03-01T02:12:24;19.40;60.00
76878;DHT22;65843;50.692;12.844;2023-03-01T02:13:26;19.30;59.70
76878;DHT22;65843;50.692;12.844;2023-03-01T02:14:27;19.30;59.60
76878;DHT22;65843;50.692;12.844;2023-03-01T02:15:31;19.30;59.50
76878;DHT22;65843;50.692;12.844;2023-03-01T02:16:32;19.30;59.60
76878;DHT22;65843;50.692;12.844;2023-03-01T02:17:33;19.30;59.80
76878;DHT22;65843;50.692;12.844;2023-03-01T02:18:34;19.30;59.80
76878;DHT22;65843;50.692;12.844;2023-03-01T02:22:55;19.30;59.90
76878;DHT22;65843;50.692;12.844;2023-03-01T02:23:56;19.30;60.00
76878;DHT22;65843;50.692;12.844;2023-03-01T02:27:00;19.30;59.70
76878;DHT22;65843;50.692;12.844;2023-03-01T02:29:02;19.30;60.10
76878;DHT22;65843;50.692;12.844;2023-03-01T02:30:03;19.30;60.00
76878;DHT22;65843;50.692;12.844;2023-03-01T02:31:08;19.20;60.40
76878;DHT22;65843;50.692;12.844;2023-03-01T02:32:28;19.20;60.40
76878;DHT22;65843;50.692;12.844;2023-03-01T02:33:29;19.20;60.40
76878;DHT22;65843;50.692;12.844;2023-03-01T02:34:36;19.20;60.60
76878;DHT22;65843;50.692;12.844;2023-03-01T02:35:37;19.30;60.50
76878;DHT22;65843;50.692;12.844;2023-03-01T02:36:47;19.20;60.30
76878;DHT22;65843;50.692;12.844;2023-03-01T02:37:48;19.30;60.20
76878;DHT22;65843;50.692;12.844;2023-03-01T02:38:49;19.30;60.30
76878;DHT22;65843;50.692;12.844;2023-03-01T02:39:57;19.20;60.30
76878;DHT22;65843;50.692;12.844;2023-03-01T02:40:58;19.30;60.20
76878;DHT22;65843;50.692;12.844;2023-03-01T02:42:00;19.30;60.30
76878;DHT22;65843;50.692;12.844;2023-03-01T02:43:03;19.30;60.60
76878;DHT22;65843;50.692;12.844;2023-03-01T02:44:06;19.20;60.40
76878;DHT22;65843;50.692;12.844;2023-03-01T02:45:07;19.30;60.50
76878;DHT22;65843;50.692;12.844;2023-03-01T02:46:13;19.30;60.30
76878;DHT22;65843;50.692;12.844;2023-03-01T02:47:14;19.20;60.20
76878;DHT22;65843;50.692;12.844;2023-03-01T02:48:15;19.20;60.40
76878;DHT22;65843;50.692;12.844;2023-03-01T02:49:19;19.20;60.60
76878;DHT22;65843;50.692;12.844;2023-03-01T02:53:04;19.20;60.50
76878;DHT22;65843;50.692;12.844;2023-03-01T02:55:12;19.20;59.90
76878;DHT22;65843;50.692;12.844;2023-03-01T02:56:14;19.20;60.20
76878;DHT22;65843;50.692;12.844;2023-03-01T02:57:15;19.20;60.50
76878;DHT22;65843;50.692;12.844;2023-03-01T02:58:17;19.20;60.30
76878;DHT22;65843;50.692;12.844;2023-03-01T02:59:19;19.20;60.40
76878;DHT22;65843;50.692;12.844;2023-03-01T03:00:21;19.20;60.30
76878;DHT22;65843;50.692;12.844;2023-03-01T03:01:23;19.20;60.50
76878;DHT22;65843;50.692;12.844;2023-03-01T03:02:36;19.20;60.50
76878;DHT22;65843;50.692;12.844;2023-03-01T03:03:37;19.20;60.10
76878;DHT22;65843;50.692;12.844;2023-03-01T03:04:38;19.20;60.50
76878;DHT22;65843;50.692;12.844;2023-03-01T03:05:39;19.20;60.40
76878;DHT22;65843;50.692;12.844;2023-03-01T03:06:40;19.20;60.30
76878;DHT22;65843;50.692;12.844;2023-03-01T03:07:42;19.20;60.30
76878;DHT22;65843;50.692;12.844;2023-03-01T03:08:44;19.20;60.50
76878;DHT22;65843;50.692;12.844;2023-03-01T03:09:44;19.20;60.10
76878;DHT22;65843;50.692;12.844;2023-03-01T03:10:45;19.20;60.40
76878;DHT22;65843;50.692;12.844;2023-03-01T03:11:46;19.20;60.20
76878;DHT22;65843;50.692;12.844;2023-03-01T03:12:51;19.20;59.90
76878;DHT22;65843;50.692;12.844;2023-03-01T03:13:53;19.20;60.10
76878;DHT22;65843;50.692;12.844;2023-03-01T03:14:53;19.20;60.60
76878;DHT22;65843;50.692;12.844;2023-03-01T03:15:55;19.20;60.50
76878;DHT22;65843;50.692;12.844;2023-03-01T03:16:56;19.20;60.40
76878;DHT22;65843;50.692;12.844;2023-03-01T03:17:57;19.20;60.60
76878;DHT22;65843;50.692;12.844;2023-03-01T03:18:58;19.20;60.60
76878;DHT22;65843;50.692;12.844;2023-03-01T03:20:05;19.20;60.40
76878;DHT22;65843;50.692;12.844;2023-03-01T03:21:07;19.20;60.70
76878;DHT22;65843;50.692;12.844;2023-03-01T03:22:11;19.20;60.50
76878;DHT22;65843;50.692;12.844;2023-03-01T03:23:12;19.20;60.30
76878;DHT22;65843;50.692;12.844;2023-03-01T03:24:13;19.20;60.40
76878;DHT22;65843;50.692;12.844;2023-03-01T03:25:14;19.20;60.40
76878;DHT22;65843;50.692;12.844;2023-03-01T03:26:15;19.20;60.60
76878;DHT22;65843;50.692;12.844;2023-03-01T03:27:16;19.20;60.40
76878;DHT22;65843;50.692;12.844;2023-03-01T03:28:17;19.10;60.60
76878;DHT22;65843;50.692;12.844;2023-03-01T03:29:18;19.10;60.60
76878;DHT22;65843;50.692;12.844;2023-03-01T03:30:19;19.20;60.50
76878;DHT22;65843;50.692;12.844;2023-03-01T03:31:22;19.20;60.50
76878;DHT22;65843;50.692;12.844;2023-03-01T03:32:23;19.10;60.70
76878;DHT22;65843;50.692;12.844;2023-03-01T03:33:24;19.10;60.50
76878;DHT22;65843;50.692;12.844;2023-03-01T03:34:25;19.20;60.40
76878;DHT22;65843;50.692;12.844;2023-03-01T03:35:29;19.10;60.60
76878;DHT22;65843;50.692;12.844;2023-03-01T03:36:30;19.10;60.30
76878;DHT22;65843;50.692;12.844;2023-03-01T03:37:31;19.10;60.40
76878;DHT22;65843;50.692;12.844;2023-03-01T03:38:51;19.10;60.20
76878;DHT22;65843;50.692;12.844;2023-03-01T03:39:52;19.10;60.50
76878;DHT22;65843;50.692;12.844;2023-03-01T03:41:02;19.10;60.50
76878;DHT22;65843;50.692;12.844;2023-03-01T03:42:04;19.10;60.50
76878;DHT22;65843;50.692;12.844;2023-03-01T03:43:09;19.10;60.50
76878;DHT22;65843;50.692;12.844;2023-03-01T03:44:10;19.10;60.70
76878;DHT22;65843;50.692;12.844;2023-03-01T03:45:11;19.10;60.60
76878;DHT22;65843;50.692;12.844;2023-03-01T03:46:12;19.10;60.40
76878;DHT22;65843;50.692;12.844;2023-03-01T03:47:13;19.10;60.70
76878;DHT22;65843;50.692;12.844;2023-03-01T03:48:14;19.10;60.60
76878;DHT22;65843;50.692;12.844;2023-03-01T03:49:15;19.10;60.60
76878;DHT22;65843;50.692;12.844;2023-03-01T03:50:16;19.10;60.60
76878;DHT22;65843;50.692;12.844;2023-03-01T03:51:17;19.10;60.70
76878;DHT22;65843;50.692;12.844;2023-03-01T03:52:18;19.10;60.40
76878;DHT22;65843;50.692;12.844;2023-03-01T03:53:20;19.10;60.50
76878;DHT22;65843;50.692;12.844;2023-03-01T03:54:21;19.10;60.50
76878;DHT22;65843;50.692;12.844;2023-03-01T03:55:22;19.10;60.60
76878;DHT22;65843;50.692;12.844;2023-03-01T03:56:23;19.10;60.70
76878;DHT22;65843;50.692;12.844;2023-03-01T03:57:26;19.10;60.50
76878;DHT22;65843;50.692;12.844;2023-03-01T03:58:27;19.20;60.40
76878;DHT22;65843;50.692;12.844;2023-03-01T03:59:28;19.10;60.50
76878;DHT22;65843;50.692;12.844;2023-03-01T04:00:29;19.10;60.40
76878;DHT22;65843;50.692;12.844;2023-03-01T04:01:30;19.20;60.40
76878;DHT22;65843;50.692;12.844;2023-03-01T04:02:31;19.20;60.50
76878;DHT22;65843;50.692;12.844;2023-03-01T04:03:32;19.10;60.50
76878;DHT22;65843;50.692;12.844;2023-03-01T04:04:33;19.10;60.40
76878;DHT22;65843;50.692;12.844;2023-03-01T04:05:34;19.20;60.50
76878;DHT22;65843;50.692;12.844;2023-03-01T04:06:34;19.10;60.90
76878;DHT22;65843;50.692;12.844;2023-03-01T04:07:35;19.20;60.60
76878;DHT22;65843;50.692;12.844;2023-03-01T04:08:36;19.20;60.70
76878;DHT22;65843;50.692;12.844;2023-03-01T04:09:37;19.20;60.90
76878;DHT22;65843;50.692;12.844;2023-03-01T04:10:39;19.20;61.10
76878;DHT22;65843;50.692;12.844;2023-03-01T04:11:40;19.20;61.10
76878;DHT22;65843;50.692;12.844;2023-03-01T04:12:41;19.20;61.00
76878;DHT22;65843;50.692;12.844;2023-03-01T04:13:43;19.20;60.90
76878;DHT22;65843;50.692;12.844;2023-03-01T04:14:44;19.20;60.90
76878;DHT22;65843;50.692;12.844;2023-03-01T04:15:51;19.20;60.70
76878;DHT22;65843;50.692;12.844;2023-03-01T04:16:52;19.20;60.80
76878;DHT22;65843;50.692;12.844;2023-03-01T04:17:54;19.20;60.80
76878;DHT22;65843;50.692;12.844;2023-03-01T04:18:55;19.20;60.80
76878;DHT22;65843;50.692;12.844;2023-03-01T04:19:56;19.20;60.70
76878;DHT22;65843;50.692;12.844;2023-03-01T04:20:57;19.20;60.70
76878;DHT22;65843;50.692;12.844;2023-03-01T04:21:58;19.20;60.50
76878;DHT22;65843;50.692;12.844;2023-03-01T04:23:59;19.20;60.40
76878;DHT22;65843;50.692;12.844;2023-03-01T04:25:00;19.20;60.40
76878;DHT22;65843;50.692;12.844;2023-03-01T04:26:02;19.20;60.30
76878;DHT22;65843;50.692;12.844;2023-03-01T04:27:03;19.20;60.20
76878;DHT22;65843;50.692;12.844;2023-03-01T04:28:04;19.20;60.50
76878;DHT22;65843;50.692;12.844;2023-03-01T04:29:05;19.20;60.40
76878;DHT22;65843;50.692;12.844;2023-03-01T04:30:06;19.20;60.60
76878;DHT22;65843;50.692;12.844;2023-03-01T04:31:09;19.20;60.50
76878;DHT22;65843;50.692;12.844;2023-03-01T04:32:17;19.20;60.30
76878;DHT22;65843;50.692;12.844;2023-03-01T04:33:19;19.20;60.00
76878;DHT22;65843;50.692;12.844;2023-03-01T04:34:20;19.20;60.40
76878;DHT22;65843;50.692;12.844;2023-03-01T04:35:20;19.20;60.20
76878;DHT22;65843;50.692;12.844;2023-03-01T04:36:24;19.20;60.20
76878;DHT22;65843;50.692;12.844;2023-03-01T04:37:25;19.10;60.60
76878;DHT22;65843;50.692;12.844;2023-03-01T04:38:26;19.10;60.40
76878;DHT22;65843;50.692;12.844;2023-03-01T04:39:27;19.10;60.60
76878;DHT22;65843;50.692;12.844;2023-03-01T04:40:28;19.10;60.60
76878;DHT22;65843;50.692;12.844;2023-03-01T04:41:29;19.10;60.80
76878;DHT22;65843;50.692;12.844;2023-03-01T04:42:30;19.10;61.00
76878;DHT22;65843;50.692;12.844;2023-03-01T04:43:31;19.20;60.70
76878;DHT22;65843;50.692;12.844;2023-03-01T04:44:32;19.20;60.80
76878;DHT22;65843;50.692;12.844;2023-03-01T04:45:33;19.20;61.20
76878;DHT22;65843;50.692;12.844;2023-03-01T04:46:35;19.20;60.90
76878;DHT22;65843;50.692;12.844;2023-03-01T04:47:36;19.20;60.70
76878;DHT22;65843;50.692;12.844;2023-03-01T04:48:39;19.20;60.30
76878;DHT22;65843;50.692;12.844;2023-03-01T04:49:40;19.20;60.50
76878;DHT22;65843;50.692;12.844;2023-03-01T04:50:41;19.20;60.40
76878;DHT22;65843;50.692;12.844;2023-03-01T04:51:42;19.20;60.20
76878;DHT22;65843;50.692;12.844;2023-03-01T04:52:43;19.10;60.40
76878;DHT22;65843;50.692;12.844;2023-03-01T04:53:44;19.20;60.30
76878;DHT22;65843;50.692;12.844;2023-03-01T04:54:45;19.10;60.20
76878;DHT22;65843;50.692;12.844;2023-03-01T04:55:46;19.10;60.50
76878;DHT22;65843;50.692;12.844;2023-03-01T04:56:47;19.10;60.80
76878;DHT22;65843;50.692;12.844;2023-03-01T04:57:48;19.10;60.40
76878;DHT22;65843;50.692;12.844;2023-03-01T04:58:49;19.10;60.30
76878;DHT22;65843;50.692;12.844;2023-03-01T04:59:49;19.10;60.20
76878;DHT22;65843;50.692;12.844;2023-03-01T05:00:50;19.00;60.20
76878;DHT22;65843;50.692;12.844;2023-03-01T05:01:51;19.00;60.20
76878;DHT22;65843;50.692;12.844;2023-03-01T05:02:53;19.00;60.00
76878;DHT22;65843;50.692;12.844;2023-03-01T05:03:55;19.00;60.20
76878;DHT22;65843;50.692;12.844;2023-03-01T05:04:55;19.00;60.10
76878;DHT22;65843;50.692;12.844;2023-03-01T05:05:58;19.00;60.00
76878;DHT22;65843;50.692;12.844;2023-03-01T05:07:00;19.00;60.30
76878;DHT22;65843;50.692;12.844;2023-03-01T05:08:02;19.00;60.60
76878;DHT22;65843;50.692;12.844;2023-03-01T05:09:03;19.00;60.40
76878;DHT22;65843;50.692;12.844;2023-03-01T05:10:04;19.00;59.10
76878;DHT22;65843;50.692;12.844;2023-03-01T05:11:05;19.00;57.10
76878;DHT22;65843;50.692;12.844;2023-03-01T05:12:06;19.00;55.90
76878;DHT22;65843;50.692;12.844;2023-03-01T05:13:07;19.00;54.90
76878;DHT22;65843;50.692;12.844;2023-03-01T05:14:08;19.00;54.60
76878;DHT22;65843;50.692;12.844;2023-03-01T05:15:09;19.00;54.10
76878;DHT22;65843;50.692;12.844;2023-03-01T05:16:10;18.90;53.80
76878;DHT22;65843;50.692;12.844;2023-03-01T05:17:14;18.90;53.50
76878;DHT22;65843;50.692;12.844;2023-03-01T05:18:15;18.90;53.30
76878;DHT22;65843;50.692;12.844;2023-03-01T05:19:16;18.80;53.20
76878;DHT22;65843;50.692;12.844;2023-03-01T05:20:17;18.80;53.30
76878;DHT22;65843;50.692;12.844;2023-03-01T05:21:17;18.80;53.10
76878;DHT22;65843;50.692;12.844;2023-03-01T05:22:18;18.80;52.90
76878;DHT22;65843;50.692;12.844;2023-03-01T05:23:19;18.80;52.90
76878;DHT22;65843;50.692;12.844;2023-03-01T05:24:20;18.70;53.00
76878;DHT22;65843;50.692;12.844;2023-03-01T05:25:21;18.70;52.70
76878;DHT22;65843;50.692;12.844;2023-03-01T05:26:22;18.70;53.00
76878;DHT22;65843;50.692;12.844;2023-03-01T05:27:27;18.70;52.80
76878;DHT22;65843;50.692;12.844;2023-03-01T05:28:30;18.70;52.90
76878;DHT22;65843;50.692;12.844;2023-03-01T05:29:31;18.70;52.90
76878;DHT22;65843;50.692;12.844;2023-03-01T05:30:35;18.60;52.80
76878;DHT22;65843;50.692;12.844;2023-03-01T05:31:36;18.60;53.10
76878;DHT22;65843;50.692;12.844;2023-03-01T05:32:39;18.60;53.00
76878;DHT22;65843;50.692;12.844;2023-03-01T05:33:40;18.60;53.10
76878;DHT22;65843;50.692;12.844;2023-03-01T05:34:41;18.60;52.90
76878;DHT22;65843;50.692;12.844;2023-03-01T05:35:43;18.60;52.90
76878;DHT22;65843;50.692;12.844;2023-03-01T05:36:44;18.60;53.20
76878;DHT22;65843;50.692;12.844;2023-03-01T05:37:47;18.60;53.70
76878;DHT22;65843;50.692;12.844;2023-03-01T05:38:48;18.60;54.00
76878;DHT22;65843;50.692;12.844;2023-03-01T05:39:49;18.50;53.50
76878;DHT22;65843;50.692;12.844;2023-03-01T05:40:50;18.50;51.20
76878;DHT22;65843;50.692;12.844;2023-03-01T05:41:52;18.40;47.70
76878;DHT22;65843;50.692;12.844;2023-03-01T05:42:55;18.30;46.50
76878;DHT22;65843;50.692;12.844;2023-03-01T05:43:56;18.30;43.60
76878;DHT22;65843;50.692;12.844;2023-03-01T05:44:57;18.20;44.80
76878;DHT22;65843;50.692;12.844;2023-03-01T05:45:58;18.10;47.00
76878;DHT22;65843;50.692;12.844;2023-03-01T05:46:59;18.00;46.90
76878;DHT22;65843;50.692;12.844;2023-03-01T05:48:00;17.90;45.90
76878;DHT22;65843;50.692;12.844;2023-03-01T05:49:01;17.80;45.60
76878;DHT22;65843;50.692;12.844;2023-03-01T05:50:03;17.80;45.30
76878;DHT22;65843;50.692;12.844;2023-03-01T05:51:04;17.60;44.60
76878;DHT22;65843;50.692;12.844;2023-03-01T05:52:04;17.50;43.30
76878;DHT22;65843;50.692;12.844;2023-03-01T05:53:23;17.50;42.40
76878;DHT22;65843;50.692;12.844;2023-03-01T05:54:24;17.40;43.50
76878;DHT22;65843;50.692;12.844;2023-03-01T05:55:25;17.40;43.70
76878;DHT22;65843;50.692;12.844;2023-03-01T05:56:26;17.40;44.10
76878;DHT22;65843;50.692;12.844;2023-03-01T05:57:28;17.40;44.40
76878;DHT22;65843;50.692;12.844;2023-03-01T05:58:29;17.40;44.80
76878;DHT22;65843;50.692;12.844;2023-03-01T05:59:30;17.40;45.60
76878;DHT22;65843;50.692;12.844;2023-03-01T06:00:31;17.40;45.90
76878;DHT22;65843;50.692;12.844;2023-03-01T06:01:32;17.40;46.00
76878;DHT22;65843;50.692;12.844;2023-03-01T06:02:33;17.50;45.90
76878;DHT22;65843;50.692;12.844;2023-03-01T06:03:34;17.50;46.60
76878;DHT22;65843;50.692;12.844;2023-03-01T06:04:35;17.50;47.20
76878;DHT22;65843;50.692;12.844;2023-03-01T06:05:36;17.60;47.20
76878;DHT22;65843;50.692;12.844;2023-03-01T06:06:37;17.60;46.60
76878;DHT22;65843;50.692;12.844;2023-03-01T06:07:38;17.70;46.80
76878;DHT22;65843;50.692;12.844;2023-03-01T06:08:39;17.80;47.60
76878;DHT22;65843;50.692;12.844;2023-03-01T06:09:40;17.80;47.70
76878;DHT22;65843;50.692;12.844;2023-03-01T06:10:41;17.80;47.80
76878;DHT22;65843;50.692;12.844;2023-03-01T06:11:42;17.90;47.40
76878;DHT22;65843;50.692;12.844;2023-03-01T06:12:43;18.00;47.00
76878;DHT22;65843;50.692;12.844;2023-03-01T06:13:44;18.00;47.70
76878;DHT22;65843;50.692;12.844;2023-03-01T06:14:46;18.00;47.60
76878;DHT22;65843;50.692;12.844;2023-03-01T06:15:48;18.00;47.70
76878;DHT22;65843;50.692;12.844;2023-03-01T06:16:48;18.00;47.60
76878;DHT22;65843;50.692;12.844;2023-03-01T06:17:50;18.10;47.80
76878;DHT22;65843;50.692;12.844;2023-03-01T06:18:51;18.10;47.40
76878;DHT22;65843;50.692;12.844;2023-03-01T06:19:52;18.10;47.60
76878;DHT22;65843;50.692;12.844;2023-03-01T06:20:53;18.20;48.00
76878;DHT22;65843;50.692;12.844;2023-03-01T06:21:54;18.20;48.30
76878;DHT22;65843;50.692;12.844;2023-03-01T06:22:55;18.30;48.50
76878;DHT22;65843;50.692;12.844;2023-03-01T06:23:56;18.40;48.50
76878;DHT22;65843;50.692;12.844;2023-03-01T06:24:57;18.40;48.30
76878;DHT22;65843;50.692;12.844;2023-03-01T06:25:58;18.40;48.40
76878;DHT22;65843;50.692;12.844;2023-03-01T06:26:59;18.50;48.40
76878;DHT22;65843;50.692;12.844;2023-03-01T06:28:00;18.50;48.40
76878;DHT22;65843;50.692;12.844;2023-03-01T06:29:01;18.60;48.40
76878;DHT22;65843;50.692;12.844;2023-03-01T06:30:02;18.60;48.30
76878;DHT22;65843;50.692;12.844;2023-03-01T06:31:03;18.60;48.20
76878;DHT22;65843;50.692;12.844;2023-03-01T06:32:04;18.70;48.20
76878;DHT22;65843;50.692;12.844;2023-03-01T06:33:05;18.70;48.20
76878;DHT22;65843;50.692;12.844;2023-03-01T06:34:05;18.70;47.90
76878;DHT22;65843;50.692;12.844;2023-03-01T06:35:06;18.70;48.00
76878;DHT22;65843;50.692;12.844;2023-03-01T06:36:07;18.70;48.00